Time;durP1;ratioP1;P1;durP2;ratioP2;P2;SDS_P1;SDS_P2;PMS_P1;PMS_P2;Temp;Humidity;BMP_temperature;BMP_pressure;BME280_temperature;BME280_humidity;BME280_pressure;Samples;Min_cycle;Max_cycle;Signal;HPM_P1;HPM_P2
2022/05/08 00:02:24;;;;;;;12.30;5.68;;;;;;;12.77;75.29;102724.47;5095320;28;20074;-41
2022/05/08 00:04:52;;;;;;;14.18;5.88;;;;;;;12.56;75.79;102723.06;5096560;28;20459;-39
2022/05/08 00:07:19;;;;;;;12.88;5.60;;;;;;;12.49;75.07;102721.25;5096763;28;20034;-40
2022/05/08 00:09:45;;;;;;;13.95;5.72;;;;;;;12.34;76.23;102718.38;5096439;28;20092;-41
2022/05/08 00:12:12;;;;;;;11.00;5.20;;;;;;;12.53;74.59;102728.56;5096735;28;20028;-41
2022/05/08 00:14:38;;;;;;;10.90;5.57;;;;;;;12.45;74.11;102722.50;5096502;28;20048;-41
2022/05/08 00:17:04;;;;;;;11.20;5.18;;;;;;;12.49;74.88;102724.66;5096341;28;20055;-40
2022/05/08 00:19:29;;;;;;;10.75;5.03;;;;;;;12.31;74.81;102726.44;5096248;28;20059;-40
2022/05/08 00:21:55;;;;;;;12.52;5.80;;;;;;;12.38;73.89;102723.13;5096296;28;20036;-41
2022/05/08 00:24:20;;;;;;;13.68;5.57;;;;;;;12.51;73.67;102719.31;5096140;28;20016;-41
2022/05/08 00:26:45;;;;;;;19.55;5.93;;;;;;;12.17;74.51;102735.59;5096662;28;20032;-41
2022/05/08 00:29:11;;;;;;;16.10;5.05;;;;;;;11.99;74.66;102725.22;5095980;28;20077;-39
2022/05/08 00:31:36;;;;;;;17.23;5.20;;;;;;;11.59;75.66;102730.78;5096769;28;20035;-39
2022/05/08 00:34:03;;;;;;;17.30;5.28;;;;;;;11.58;75.47;102729.97;5095901;28;20073;-39
2022/05/08 00:36:28;;;;;;;22.50;5.40;;;;;;;11.55;74.65;102729.47;5095951;28;20413;-39
2022/05/08 00:38:55;;;;;;;18.95;4.75;;;;;;;11.67;73.71;102715.34;5096152;28;20024;-39
2022/05/08 00:41:20;;;;;;;20.70;4.60;;;;;;;11.50;73.00;102732.47;5096010;28;20415;-40
2022/05/08 00:43:46;;;;;;;11.48;3.60;;;;;;;11.25;72.63;102736.59;5095722;28;20024;-38
2022/05/08 00:46:12;;;;;;;19.80;3.85;;;;;;;11.14;72.75;102737.56;5096007;28;20024;-39
2022/05/08 00:48:39;;;;;;;19.83;4.07;;;;;;;11.21;72.47;102741.22;5095805;28;20063;-40
2022/05/08 00:51:08;;;;;;;17.30;3.85;;;;;;;11.14;72.88;102742.75;5095979;28;20352;-40
2022/05/08 00:53:39;;;;;;;18.45;3.90;;;;;;;11.30;71.92;102735.16;5095920;28;20355;-41
2022/05/08 00:56:09;;;;;;;14.88;3.10;;;;;;;10.93;73.01;102747.31;5095817;28;20352;-39
2022/05/08 00:58:36;;;;;;;20.45;3.67;;;;;;;10.99;73.07;102746.72;5094228;28;20113;-39
2022/05/08 01:01:02;;;;;;;21.70;3.45;;;;;;;10.70;74.02;102736.47;5095339;28;20028;-39
2022/05/08 01:03:27;;;;;;;25.60;4.47;;;;;;;10.71;73.74;102748.47;5095810;28;20043;-40
2022/05/08 01:05:54;;;;;;;21.00;3.30;;;;;;;10.93;72.78;102745.53;5095428;28;20467;-40
2022/05/08 01:08:22;;;;;;;25.20;3.70;;;;;;;10.76;72.79;102735.91;5095622;28;20185;-41
2022/05/08 01:10:47;;;;;;;15.30;3.40;;;;;;;10.71;73.09;102738.94;5095227;28;20032;-41
2022/05/08 01:13:12;;;;;;;21.00;3.75;;;;;;;10.69;73.03;102742.63;5095454;28;20035;-40
2022/05/08 01:15:41;;;;;;;29.42;3.88;;;;;;;10.67;72.81;102722.06;5095347;28;20043;-40
2022/05/08 01:18:07;;;;;;;16.60;3.28;;;;;;;10.70;72.26;102746.81;5093958;28;20028;-40
2022/05/08 01:20:33;;;;;;;23.20;3.72;;;;;;;10.46;73.89;102724.03;5095188;28;20028;-41
2022/05/08 01:22:58;;;;;;;19.95;3.25;;;;;;;10.61;72.97;102743.31;5095361;28;20102;-41
2022/05/08 01:25:23;;;;;;;19.98;3.55;;;;;;;10.51;73.24;102745.09;5095235;28;20016;-40
2022/05/08 01:27:48;;;;;;;19.42;3.60;;;;;;;10.57;73.46;102740.19;5094718;28;20379;-41
2022/05/08 01:30:14;;;;;;;24.08;3.78;;;;;;;10.22;73.84;102742.50;5095083;28;20028;-40
2022/05/08 01:32:39;;;;;;;21.27;3.42;;;;;;;10.46;73.71;102740.34;5094865;28;20028;-40
2022/05/08 01:35:05;;;;;;;18.98;3.85;;;;;;;10.16;74.00;102733.53;5095047;28;20034;-42
2022/05/08 01:37:30;;;;;;;21.70;3.50;;;;;;;10.27;74.29;102745.50;5095037;28;20380;-40
2022/05/08 01:39:56;;;;;;;18.50;3.17;;;;;;;10.19;74.14;102748.75;5094747;28;20041;-40
2022/05/08 01:42:22;;;;;;;22.10;3.85;;;;;;;10.37;73.98;102751.50;5094975;28;20028;-41
2022/05/08 01:44:47;;;;;;;24.92;2.92;;;;;;;10.41;73.72;102752.84;5094667;28;20016;-41
2022/05/08 01:49:57;;;;;;;15.00;3.22;;;;;;;10.24;74.27;102751.75;5094879;28;20094;-40
2022/05/08 01:52:22;;;;;;;24.42;3.70;;;;;;;10.26;74.54;102754.19;5094800;28;20028;-41
2022/05/08 01:54:47;;;;;;;19.13;2.90;;;;;;;10.11;74.70;102757.19;5094368;28;20481;-42
2022/05/08 01:57:12;;;;;;;22.77;3.55;;;;;;;10.02;74.81;102754.59;5094403;28;20030;-41
2022/05/08 01:59:38;;;;;;;18.95;3.38;;;;;;;9.93;74.62;102730.41;5094567;28;20027;-41
2022/05/08 02:02:03;;;;;;;23.70;3.40;;;;;;;10.02;74.99;102759.78;5093426;28;20028;-40
2022/05/08 02:04:29;;;;;;;18.77;3.55;;;;;;;10.04;74.95;102757.84;5094781;28;20518;-41
2022/05/08 02:06:55;;;;;;;21.45;3.45;;;;;;;9.96;75.17;102755.16;5094597;28;20099;-41
2022/05/08 02:09:20;;;;;;;17.60;3.55;;;;;;;10.00;75.27;102759.09;5092772;28;20119;-39
2022/05/08 02:11:45;;;;;;;27.50;3.50;;;;;;;10.02;75.61;102752.03;5095037;28;20344;-41
2022/05/08 02:14:10;;;;;;;17.90;3.40;;;;;;;9.99;74.81;102750.53;5094328;28;20032;-41
2022/05/08 02:16:36;;;;;;;24.25;4.15;;;;;;;9.93;74.82;102751.88;5094073;28;20467;-40
2022/05/08 02:19:01;;;;;;;18.20;3.40;;;;;;;10.03;75.48;102753.66;5094007;28;20039;-40
2022/05/08 02:21:26;;;;;;;23.73;3.80;;;;;;;9.95;74.79;102749.16;5094795;28;20020;-40
2022/05/08 02:23:52;;;;;;;18.40;3.22;;;;;;;9.92;75.09;102746.84;5093842;28;20040;-40
2022/05/08 02:26:17;;;;;;;27.38;3.47;;;;;;;9.86;75.84;102747.38;5093374;28;20028;-41
2022/05/08 02:28:42;;;;;;;27.98;3.97;;;;;;;9.86;75.32;102735.28;5094387;28;20024;-40
2022/05/08 02:31:07;;;;;;;14.88;3.08;;;;;;;9.92;74.82;102757.16;5094367;28;20027;-40
2022/05/08 02:33:33;;;;;;;24.17;3.30;;;;;;;9.90;75.33;102753.91;5093848;28;20527;-40
2022/05/08 02:35:58;;;;;;;22.80;3.67;;;;;;;9.89;75.15;102753.06;5093698;28;20051;-40
2022/05/08 02:38:24;;;;;;;26.17;4.10;;;;;;;9.67;75.82;102761.88;5093220;28;20020;-41
2022/05/08 02:40:51;;;;;;;28.33;3.50;;;;;;;9.65;75.47;102760.38;5093957;28;20027;-41
2022/05/08 02:43:18;;;;;;;20.98;3.67;;;;;;;9.69;75.74;102749.66;5093906;28;20382;-41
2022/05/08 02:45:43;;;;;;;22.30;3.58;;;;;;;9.61;76.26;102762.44;5093943;28;20022;-40
2022/05/08 02:48:09;;;;;;;22.55;3.67;;;;;;;9.62;76.04;102756.31;5093927;28;20111;-40
2022/05/08 02:50:34;;;;;;;22.10;3.60;;;;;;;9.55;76.70;102756.94;5093901;28;20027;-40
2022/05/08 02:52:59;;;;;;;20.40;3.40;;;;;;;9.59;76.34;102771.25;5093828;28;20019;-41
2022/05/08 03:00:52;;;;;;;23.73;3.80;;;;;;;9.26;77.47;102758.50;5093778;28;20047;-40
2022/05/08 03:03:17;;;;;;;19.75;3.72;;;;;;;9.35;77.27;102764.66;5093457;28;20024;-41
2022/05/08 03:05:47;;;;;;;25.50;3.42;;;;;;;9.33;77.35;102756.22;5093673;28;20027;-40
2022/05/08 03:08:15;;;;;;;18.17;3.67;;;;;;;9.20;77.79;102753.03;5093451;28;20077;-40
2022/05/08 03:13:24;;;;;;;23.95;3.53;;;;;;;9.21;77.65;102757.25;5094183;28;20085;-42
2022/05/08 03:15:50;;;;;;;20.17;3.60;;;;;;;9.22;77.34;102758.88;5093764;28;20020;-41
2022/05/08 03:18:15;;;;;;;22.77;3.55;;;;;;;9.15;77.92;102740.53;5093917;28;20028;-41
2022/05/08 03:20:40;;;;;;;23.92;4.35;;;;;;;9.32;77.14;102754.59;5093867;28;20024;-41
2022/05/08 03:23:06;;;;;;;16.88;3.50;;;;;;;9.33;77.29;102763.97;5093448;28;20051;-40
2022/05/08 03:25:31;;;;;;;26.80;4.53;;;;;;;9.17;78.33;102758.44;5093231;28;20462;-41
2022/05/08 03:27:57;;;;;;;23.02;3.45;;;;;;;9.18;77.30;102768.66;5093420;28;20024;-41
2022/05/08 03:30:24;;;;;;;22.52;4.15;;;;;;;9.16;77.70;102759.41;5093797;28;20020;-41
2022/05/08 03:32:49;;;;;;;17.98;3.63;;;;;;;9.08;77.86;102770.34;5093447;28;20031;-50
2022/05/08 03:35:14;;;;;;;17.98;3.72;;;;;;;9.14;78.10;102771.59;5093201;28;20024;-41
2022/05/08 03:37:40;;;;;;;21.88;3.70;;;;;;;8.93;78.51;102772.44;5093388;28;20110;-41
2022/05/08 03:40:06;;;;;;;19.50;3.63;;;;;;;9.10;78.58;102773.63;5093442;28;20036;-41
2022/05/08 03:42:31;;;;;;;23.65;3.60;;;;;;;9.01;77.80;102779.56;5093144;28;20032;-40
2022/05/08 03:44:56;;;;;;;20.08;3.70;;;;;;;9.00;78.29;102775.34;5093464;28;20021;-40
2022/05/08 03:47:23;;;;;;;22.88;4.05;;;;;;;9.16;77.95;102777.47;5093394;28;20020;-41
2022/05/08 03:49:48;;;;;;;20.38;3.80;;;;;;;9.10;78.22;102776.22;5094269;28;20380;-40
2022/05/08 03:52:14;;;;;;;22.95;3.80;;;;;;;9.11;77.77;102785.56;5095711;28;20020;-41
2022/05/08 03:54:40;;;;;;;23.83;4.35;;;;;;;9.10;77.64;102780.56;5097014;28;20047;-41
2022/05/08 03:57:05;;;;;;;17.95;3.58;;;;;;;9.04;78.66;102785.28;5096761;28;20024;-41
2022/05/08 03:59:31;;;;;;;23.50;4.53;;;;;;;9.06;77.93;102790.28;5096961;28;20027;-41
2022/05/08 04:01:56;;;;;;;17.08;3.25;;;;;;;9.03;78.32;102790.53;5096610;28;20368;-40
2022/05/08 04:04:22;;;;;;;22.60;3.70;;;;;;;9.02;78.75;102789.72;5096629;28;20032;-40
2022/05/08 04:06:47;;;;;;;21.75;3.60;;;;;;;9.00;78.60;102791.63;5096809;28;20036;-40
2022/05/08 04:09:14;;;;;;;24.30;4.60;;;;;;;8.92;78.53;102793.19;5096523;28;20040;-41
2022/05/08 04:11:39;;;;;;;21.33;4.05;;;;;;;9.04;79.40;102793.00;5096350;28;20028;-43
2022/05/08 04:14:04;;;;;;;22.83;4.03;;;;;;;8.84;78.85;102791.25;5095163;28;20024;-43
2022/05/08 04:16:30;;;;;;;22.02;4.10;;;;;;;8.89;78.85;102789.13;5096962;28;20026;-40
2022/05/08 04:18:55;;;;;;;22.55;4.13;;;;;;;8.94;79.09;102797.28;5096541;28;20097;-40
2022/05/08 04:21:21;;;;;;;18.17;3.38;;;;;;;8.93;78.74;102792.28;5096747;28;20024;-40
2022/05/08 04:26:30;;;;;;;15.77;3.53;;;;;;;9.18;77.40;102796.22;5096205;28;20035;-39
2022/05/08 04:28:56;;;;;;;21.02;4.15;;;;;;;9.19;76.95;102796.06;5096206;28;20023;-41
2022/05/08 04:31:22;;;;;;;18.67;3.80;;;;;;;9.11;78.09;102797.66;5096081;28;20421;-40
2022/05/08 04:33:47;;;;;;;23.42;3.90;;;;;;;9.16;77.20;102801.50;5096187;28;20032;-40
2022/05/08 04:36:13;;;;;;;18.60;3.83;;;;;;;9.29;77.62;102805.63;5096536;28;20020;-43
2022/05/08 04:38:38;;;;;;;16.13;3.45;;;;;;;9.08;77.12;102800.50;5096221;28;20055;-40
2022/05/08 04:41:04;;;;;;;18.42;3.80;;;;;;;9.12;76.90;102802.69;5096110;28;20074;-40
2022/05/08 04:43:29;;;;;;;23.45;3.83;;;;;;;9.30;76.87;102810.66;5096025;28;20032;-40
2022/05/08 04:45:54;;;;;;;23.27;3.88;;;;;;;9.25;77.61;102815.38;5096406;28;20036;-40
2022/05/08 04:48:19;;;;;;;23.10;3.65;;;;;;;9.11;77.08;102782.19;5096276;28;20063;-40
2022/05/08 04:50:45;;;;;;;25.83;4.15;;;;;;;9.31;76.28;102812.28;5096265;28;20016;-40
2022/05/08 04:53:10;;;;;;;18.45;3.90;;;;;;;9.39;76.88;102814.22;5096165;28;20103;-39
2022/05/08 04:55:35;;;;;;;16.88;3.28;;;;;;;9.53;76.12;102816.47;5095494;28;20020;-40
2022/05/08 04:58:00;;;;;;;16.67;3.85;;;;;;;9.26;76.81;102825.59;5095565;28;20020;-38
2022/05/08 05:00:26;;;;;;;20.50;3.63;;;;;;;9.47;76.70;102819.56;5095878;28;20028;-40
2022/05/08 05:02:52;;;;;;;18.95;3.47;;;;;;;9.40;76.93;102821.00;5094822;28;20020;-39
2022/05/08 05:05:17;;;;;;;22.67;3.90;;;;;;;9.54;77.17;102815.50;5095690;28;20030;-40
2022/05/08 05:07:42;;;;;;;20.58;3.83;;;;;;;9.72;74.93;102826.03;5095414;28;20485;-40
2022/05/08 05:10:10;;;;;;;24.17;3.80;;;;;;;9.96;74.16;102828.28;5095298;28;20077;-41
2022/05/08 05:12:35;;;;;;;15.48;3.53;;;;;;;9.88;74.35;102834.09;5095597;28;20471;-41
2022/05/08 05:15:01;;;;;;;19.38;3.75;;;;;;;9.89;75.03;102835.72;5095469;28;20025;-41
2022/05/08 05:17:26;;;;;;;17.25;2.97;;;;;;;9.90;73.96;102834.78;5095476;28;20359;-41
2022/05/08 05:19:52;;;;;;;17.02;3.58;;;;;;;9.91;74.18;102839.00;5095405;28;20024;-44
2022/05/08 05:22:21;;;;;;;27.50;4.10;;;;;;;9.66;74.17;102852.38;5095181;28;20036;-40
2022/05/08 05:24:46;;;;;;;20.77;3.78;;;;;;;10.03;73.80;102842.28;5095347;28;20099;-41
2022/05/08 05:27:11;;;;;;;23.77;3.72;;;;;;;10.09;73.11;102841.75;5094981;28;20059;-40
2022/05/08 05:29:37;;;;;;;20.85;4.00;;;;;;;9.74;73.72;102818.97;5095562;28;20028;-40
2022/05/08 05:32:02;;;;;;;19.48;3.33;;;;;;;10.37;72.49;102852.31;5095237;28;20024;-41
2022/05/08 05:34:27;;;;;;;21.40;3.70;;;;;;;10.57;71.68;102850.53;5094746;28;20356;-40
2022/05/08 05:36:53;;;;;;;16.88;4.05;;;;;;;10.31;71.63;102850.25;5095078;28;20020;-40
2022/05/08 05:39:18;;;;;;;22.20;3.83;;;;;;;10.00;72.11;102846.91;5095021;28;20032;-40
2022/05/08 05:41:43;;;;;;;21.90;3.17;;;;;;;10.02;72.78;102848.41;5095009;28;20027;-39
2022/05/08 05:44:08;;;;;;;17.08;3.28;;;;;;;10.44;71.63;102861.13;5094633;28;20039;-39
2022/05/08 05:49:19;;;;;;;15.73;2.97;;;;;;;10.74;70.80;102859.38;5094563;28;20043;-41
2022/05/08 05:51:44;;;;;;;18.08;3.47;;;;;;;11.15;68.81;102860.81;5093853;28;20363;-38
2022/05/08 05:54:09;;;;;;;20.17;4.18;;;;;;;14.68;57.36;102859.84;5094640;28;20032;-40
2022/05/08 05:56:34;;;;;;;17.90;3.28;;;;;;;19.05;45.65;102858.06;5094995;28;20031;-41
2022/05/08 05:59:00;;;;;;;21.20;3.75;;;;;;;19.45;43.47;102868.72;5094657;28;20077;-40
2022/05/08 06:01:25;;;;;;;15.52;3.40;;;;;;;19.92;41.75;102872.34;5094295;28;20023;-42
2022/05/08 06:03:50;;;;;;;15.25;3.20;;;;;;;18.87;42.32;102869.84;5094597;28;20379;-41
2022/05/08 06:06:15;;;;;;;15.82;3.50;;;;;;;20.03;40.08;102883.06;5094555;28;20024;-41
2022/05/08 06:08:41;;;;;;;20.85;3.05;;;;;;;20.71;38.09;102868.97;5094716;28;20028;-41
2022/05/08 06:11:06;;;;;;;15.05;3.42;;;;;;;22.01;35.72;102877.63;5094179;28;20039;-46
2022/05/08 06:13:32;;;;;;;18.05;3.30;;;;;;;22.32;34.93;102868.09;5094030;28;20024;-41
2022/05/08 06:15:58;;;;;;;12.77;3.10;;;;;;;21.82;35.74;102871.47;5094308;28;20023;-41
2022/05/08 06:18:24;;;;;;;15.88;3.50;;;;;;;23.24;33.12;102872.69;5094377;28;20526;-41
2022/05/08 06:20:49;;;;;;;11.27;2.80;;;;;;;20.80;36.54;102874.81;5092795;28;20024;-41
2022/05/08 06:23:14;;;;;;;17.25;3.30;;;;;;;22.47;33.89;102871.22;5093858;28;20048;-41
2022/05/08 06:25:41;;;;;;;15.07;3.40;;;;;;;23.65;32.16;102877.28;5093956;28;20367;-41
2022/05/08 06:28:07;;;;;;;14.48;3.22;;;;;;;20.56;36.53;102879.69;5094210;28;20027;-41
2022/05/08 06:30:33;;;;;;;14.43;3.15;;;;;;;22.50;34.39;102876.06;5094617;28;20024;-41
2022/05/08 06:32:58;;;;;;;15.88;3.33;;;;;;;23.03;33.76;102877.41;5093737;28;20028;-41
2022/05/08 06:35:23;;;;;;;14.75;3.33;;;;;;;23.65;32.61;102885.97;5094031;28;20035;-41
2022/05/08 06:37:48;;;;;;;13.65;3.15;;;;;;;23.71;32.22;102883.50;5094164;28;20095;-41
2022/05/08 06:40:14;;;;;;;16.27;3.07;;;;;;;24.26;31.17;102885.94;5093855;28;20020;-41
2022/05/08 06:42:39;;;;;;;13.85;2.80;;;;;;;24.60;30.33;102883.56;5093666;28;20277;-42
2022/05/08 06:45:05;;;;;;;14.87;3.10;;;;;;;23.93;31.26;102895.16;5092420;28;20106;-42
2022/05/08 06:47:30;;;;;;;13.52;3.00;;;;;;;24.66;30.00;102888.75;5094017;28;20266;-41
2022/05/08 06:49:55;;;;;;;13.77;3.07;;;;;;;24.64;29.96;102893.44;5094206;28;20024;-42
2022/05/08 06:52:20;;;;;;;13.53;3.00;;;;;;;23.00;32.20;102896.28;5094182;28;20717;-42
2022/05/08 06:54:45;;;;;;;14.10;3.10;;;;;;;22.17;33.90;102888.66;5093748;28;20274;-41
2022/05/08 06:57:12;;;;;;;15.05;3.00;;;;;;;22.54;33.63;102892.25;5093861;28;20031;-42
2022/05/08 07:02:21;;;;;;;14.75;2.85;;;;;;;24.46;29.85;102893.56;5094107;28;20050;-42
2022/05/08 07:04:46;;;;;;;16.52;3.00;;;;;;;22.51;32.78;102900.56;5093520;28;20448;-42
2022/05/08 07:07:13;;;;;;;14.75;3.38;;;;;;;23.16;32.43;102874.63;5092734;28;20032;-42
2022/05/08 07:09:38;;;;;;;15.40;3.00;;;;;;;23.31;32.25;102902.47;5093659;28;20443;-58
2022/05/08 07:12:03;;;;;;;12.32;2.80;;;;;;;17.15;42.64;102894.94;5093431;28;20024;-41
2022/05/08 07:14:29;;;;;;;13.93;2.80;;;;;;;16.31;44.51;102896.75;5092813;28;20115;-41
2022/05/08 07:16:55;;;;;;;13.32;3.15;;;;;;;18.08;41.25;102908.38;5093304;28;20035;-41
2022/05/08 07:19:20;;;;;;;13.73;2.78;;;;;;;17.21;42.76;102902.06;5093397;28;20032;-40
2022/05/08 07:21:45;;;;;;;14.57;2.70;;;;;;;14.73;48.35;102908.78;5093341;28;20028;-42
2022/05/08 07:24:10;;;;;;;17.67;2.88;;;;;;;13.60;52.55;102906.50;5093419;28;20105;-40
2022/05/08 07:26:39;;;;;;;9.95;2.60;;;;;;;16.38;45.09;102908.13;5097928;28;20035;-41
2022/05/08 07:29:04;;;;;;;15.85;3.08;;;;;;;15.33;47.78;102908.38;5097596;28;20458;-41
2022/05/08 07:31:31;;;;;;;18.48;3.10;;;;;;;13.98;51.47;102910.44;5097334;28;20028;-41
2022/05/08 07:36:40;;;;;;;13.40;2.70;;;;;;;14.09;52.53;102908.50;5098041;28;20096;-40
2022/05/08 07:39:05;;;;;;;17.55;3.00;;;;;;;12.59;55.64;102919.88;5097395;28;20099;-40
2022/05/08 07:41:31;;;;;;;15.60;3.00;;;;;;;12.46;56.75;102918.59;5097153;28;20020;-40
2022/05/08 07:43:56;;;;;;;15.27;2.88;;;;;;;14.98;50.90;102914.78;5097311;28;20081;-41
2022/05/08 07:46:22;;;;;;;13.65;2.92;;;;;;;14.06;52.50;102914.00;5097018;28;20115;-39
2022/05/08 07:48:47;;;;;;;13.02;3.05;;;;;;;14.51;51.47;102918.00;5097145;28;20034;-39
2022/05/08 07:51:12;;;;;;;12.55;3.15;;;;;;;16.01;48.36;102915.66;5096878;28;20024;-39
2022/05/08 07:53:37;;;;;;;12.00;2.85;;;;;;;16.23;47.92;102921.09;5095873;28;20020;-40
2022/05/08 07:56:03;;;;;;;16.75;2.78;;;;;;;16.38;46.65;102919.38;5096485;28;20081;-40
2022/05/08 07:58:31;;;;;;;16.13;3.03;;;;;;;15.45;48.39;102921.88;5095847;28;20024;-38
2022/05/08 08:00:57;;;;;;;11.00;2.70;;;;;;;14.49;51.43;102914.75;5095216;28;20031;-39
2022/05/08 08:03:30;;;;;;;11.85;2.65;;;;;;;15.29;49.67;102915.72;5095970;28;20085;-39
2022/05/08 08:05:56;;;;;;;13.57;2.80;;;;;;;16.53;47.73;102911.59;5096855;28;20024;-41
2022/05/08 08:08:25;;;;;;;14.48;2.80;;;;;;;16.97;45.71;102908.31;5097070;28;20111;-40
2022/05/08 08:10:56;;;;;;;12.55;2.70;;;;;;;17.42;44.81;102917.00;5096435;28;20048;-39
2022/05/08 08:13:23;;;;;;;14.40;2.92;;;;;;;16.29;46.05;102922.22;5096711;28;20070;-39
2022/05/08 08:15:48;;;;;;;18.15;2.80;;;;;;;16.87;44.55;102920.81;5096654;28;20024;-40
2022/05/08 08:18:15;;;;;;;11.45;2.65;;;;;;;17.91;43.57;102919.06;5094929;28;20528;-39
2022/05/08 08:20:40;;;;;;;9.48;2.58;;;;;;;17.25;42.92;102920.78;5095954;28;20028;-41
2022/05/08 08:23:06;;;;;;;10.85;2.40;;;;;;;16.78;44.92;102922.69;5096183;28;20185;-38
2022/05/08 08:25:32;;;;;;;12.90;2.50;;;;;;;17.10;43.95;102926.00;5096242;28;20039;-40
2022/05/08 08:27:57;;;;;;;12.32;2.75;;;;;;;18.11;42.00;102928.94;5096413;28;20035;-40
2022/05/08 08:30:22;;;;;;;12.48;2.58;;;;;;;18.84;40.75;102922.59;5096443;28;20081;-40
2022/05/08 08:32:48;;;;;;;8.63;2.35;;;;;;;17.98;42.05;102919.97;5096800;28;20355;-40
2022/05/08 08:35:14;;;;;;;13.18;2.90;;;;;;;18.83;41.47;102925.41;5096113;28;20031;-39
2022/05/08 08:37:39;;;;;;;12.35;2.63;;;;;;;16.49;44.20;102925.97;5094630;28;20028;-40
2022/05/08 08:40:05;;;;;;;10.63;2.88;;;;;;;17.15;44.91;102931.50;5096132;28;20107;-40
2022/05/08 08:42:31;;;;;;;10.00;2.60;;;;;;;17.96;42.96;102929.78;5096283;28;20409;-44
2022/05/08 08:48:11;;;;;;;12.35;2.47;;;;;;;17.38;43.37;102915.75;5095556;28;20547;-41
2022/05/08 08:50:36;;;;;;;12.32;2.72;;;;;;;18.27;41.83;102919.06;5096029;28;20448;-41
2022/05/08 08:53:04;;;;;;;15.68;2.63;;;;;;;17.78;43.94;102922.34;5095674;28;20101;-40
2022/05/08 08:55:29;;;;;;;10.82;2.42;;;;;;;18.86;42.31;102917.16;5094229;28;20029;-40
2022/05/08 08:57:55;;;;;;;12.77;2.55;;;;;;;18.99;40.05;102913.81;5095868;28;20030;-40
2022/05/08 09:00:21;;;;;;;9.93;2.80;;;;;;;19.60;38.69;102914.78;5095530;28;20028;-39
2022/05/08 09:02:47;;;;;;;9.32;2.45;;;;;;;18.19;40.18;102928.84;5095619;28;20051;-40
2022/05/08 09:05:13;;;;;;;11.65;2.28;;;;;;;17.12;42.14;102921.41;5095720;28;20407;-40
2022/05/08 09:07:44;;;;;;;10.23;2.47;;;;;;;17.55;42.88;102922.41;5095582;28;20022;-40
2022/05/08 09:10:15;;;;;;;10.82;2.80;;;;;;;16.29;43.58;102914.38;5095544;28;20378;-36
2022/05/08 09:13:02;;;;;;;10.38;2.67;;;;;;;16.79;43.53;102920.88;5095498;28;20058;-35
2022/05/08 09:15:35;;;;;;;11.32;2.55;;;;;;;18.65;41.03;102923.22;5095446;28;20085;-36
2022/05/08 09:18:05;;;;;;;12.73;2.50;;;;;;;16.66;41.80;102924.88;5095395;28;20016;-36
2022/05/08 09:20:39;;;;;;;9.25;2.42;;;;;;;17.92;40.81;102917.25;5095642;28;20039;-36
2022/05/08 09:23:23;;;;;;;12.45;2.50;;;;;;;19.01;38.22;102917.06;5095148;28;20035;-36
2022/05/08 09:25:59;;;;;;;15.02;2.47;;;;;;;19.25;39.51;102915.78;5095322;28;20020;-38
2022/05/08 09:28:33;;;;;;;10.40;2.50;;;;;;;19.13;39.03;102907.66;5095722;28;20028;-38
2022/05/08 09:31:03;;;;;;;10.20;2.50;;;;;;;17.79;40.68;102897.00;5093584;28;20031;-37
2022/05/08 09:33:40;;;;;;;9.40;2.50;;;;;;;19.22;37.89;102898.66;5095130;28;20490;-37
2022/05/08 09:36:08;;;;;;;6.63;2.38;;;;;;;18.25;39.78;102907.16;5095029;28;20028;-36
2022/05/08 09:38:45;;;;;;;12.05;2.45;;;;;;;18.59;39.90;102903.84;5093507;28;20024;-37
2022/05/08 09:41:12;;;;;;;9.20;2.35;;;;;;;18.86;39.42;102906.69;5094984;28;20107;-36
2022/05/08 09:43:40;;;;;;;11.40;2.67;;;;;;;18.07;40.42;102910.19;5095278;28;20024;-36
2022/05/08 09:46:06;;;;;;;10.82;2.83;;;;;;;17.90;39.33;102904.38;5094691;28;20111;-37
2022/05/08 09:48:33;;;;;;;10.43;2.35;;;;;;;18.32;41.30;102902.78;5094232;28;20494;-36
2022/05/08 09:51:01;;;;;;;14.73;2.80;;;;;;;18.23;39.84;102912.56;5094482;28;20463;-37
2022/05/08 09:53:28;;;;;;;8.68;2.67;;;;;;;18.32;39.74;102907.19;5094760;28;20469;-36
2022/05/08 09:55:57;;;;;;;13.48;2.50;;;;;;;19.84;37.32;102910.84;5093138;28;20024;-36
2022/05/08 09:58:23;;;;;;;8.82;2.00;;;;;;;19.60;37.29;102908.75;5094668;28;20438;-35
2022/05/08 10:00:51;;;;;;;8.85;2.60;;;;;;;19.44;36.10;102909.84;5094300;28;20099;-36
2022/05/08 10:03:17;;;;;;;10.50;2.10;;;;;;;18.60;39.22;102900.22;5094319;28;20031;-36
2022/05/08 10:05:42;;;;;;;11.43;2.17;;;;;;;18.59;37.19;102905.66;5094586;28;20024;-37
2022/05/08 10:08:08;;;;;;;7.28;2.15;;;;;;;19.24;39.90;102898.47;5094468;28;20375;-36
2022/05/08 10:17:06;;;;;;;14.35;2.75;;;;;;;18.29;40.15;102903.16;5094587;28;20035;-36
2022/05/08 10:19:31;;;;;;;8.18;2.22;;;;;;;18.77;39.30;102887.69;5086333;28;20040;-36
2022/05/08 10:21:57;;;;;;;9.20;2.40;;;;;;;19.93;36.50;102894.94;5094673;28;20042;-35
2022/05/08 10:24:38;;;;;;;9.43;2.60;;;;;;;17.57;39.58;102890.84;5093684;28;20052;-36
2022/05/08 10:27:16;;;;;;;11.85;2.40;;;;;;;19.66;37.12;102883.56;5094230;28;20403;-36
2022/05/08 10:30:02;;;;;;;12.88;2.30;;;;;;;19.60;36.58;102885.94;5093828;28;20036;-37
2022/05/08 10:32:33;;;;;;;11.02;2.10;;;;;;;19.01;38.54;102883.81;5093806;28;20036;-36
2022/05/08 10:35:20;;;;;;;8.05;2.15;;;;;;;19.00;38.53;102874.34;5093908;28;20028;-36
2022/05/08 10:37:46;;;;;;;10.48;2.50;;;;;;;19.69;38.12;102876.13;5092911;28;20060;-37
2022/05/08 10:40:23;;;;;;;9.38;1.90;;;;;;;20.61;37.08;102874.66;5093732;28;20020;-36
2022/05/08 10:42:49;;;;;;;11.27;2.30;;;;;;;20.80;35.46;102867.78;5093947;28;20038;-36
2022/05/08 10:45:30;;;;;;;7.68;2.38;;;;;;;20.95;34.72;102864.91;5094140;28;20114;-36
2022/05/08 10:47:55;;;;;;;10.75;2.15;;;;;;;21.04;34.80;102870.75;5093941;28;20112;-36
2022/05/08 10:50:21;;;;;;;6.88;1.95;;;;;;;20.14;34.94;102873.81;5093481;28;20474;-40
2022/05/08 10:52:47;;;;;;;10.77;2.30;;;;;;;18.29;38.76;102853.44;5094104;28;20032;-40
2022/05/08 10:55:15;;;;;;;8.63;2.20;;;;;;;20.08;36.12;102879.81;5093412;28;20024;-41
2022/05/08 10:57:43;;;;;;;5.28;1.80;;;;;;;19.75;37.43;102870.06;5094537;28;20385;-40
2022/05/08 11:00:16;;;;;;;7.18;2.10;;;;;;;20.80;35.48;102862.53;5093247;28;20016;-40
2022/05/08 11:02:43;;;;;;;10.82;2.20;;;;;;;21.64;33.69;102868.72;5093705;28;20414;-40
2022/05/08 11:05:19;;;;;;;8.45;2.33;;;;;;;19.77;37.40;102862.81;5093627;28;20099;-40
2022/05/08 11:08:20;;;;;;;8.63;2.10;;;;;;;20.19;34.43;102866.13;5093641;28;20421;-40
2022/05/08 11:10:46;;;;;;;8.20;2.40;;;;;;;20.87;34.94;102870.38;5080239;28;20478;-40
2022/05/08 11:13:17;;;;;;;9.88;2.20;;;;;;;21.05;36.11;102867.91;5093871;28;20051;-40
2022/05/08 11:15:42;;;;;;;10.40;1.98;;;;;;;20.63;35.25;102872.63;5093568;28;20073;-40
2022/05/08 11:18:09;;;;;;;7.33;2.20;;;;;;;19.81;38.26;102866.66;5093555;28;20498;-40
2022/05/08 11:20:39;;;;;;;11.38;2.45;;;;;;;20.50;37.18;102870.78;5093387;28;20027;-40
2022/05/08 11:23:05;;;;;;;8.55;2.40;;;;;;;20.02;37.68;102876.22;5093577;28;20028;-40
2022/05/08 11:25:32;;;;;;;9.15;2.20;;;;;;;21.39;35.40;102858.91;5093482;28;20036;-41
2022/05/08 11:27:58;;;;;;;8.85;2.10;;;;;;;21.27;35.05;102865.81;5093863;28;20111;-40
2022/05/08 11:30:35;;;;;;;11.15;2.20;;;;;;;20.93;36.62;102864.31;5091950;28;20439;-41
2022/05/08 11:36:08;;;;;;;6.47;2.20;;;;;;;20.78;35.71;102863.72;5093776;28;20481;-40
2022/05/08 11:39:00;;;;;;;14.48;2.40;;;;;;;20.68;36.28;102854.41;5092401;28;20384;-41
2022/05/08 11:41:26;;;;;;;7.82;2.20;;;;;;;21.27;36.00;102854.50;5093438;28;20028;-41
2022/05/08 11:44:16;;;;;;;7.00;2.40;;;;;;;19.02;38.30;102858.41;5093401;28;20030;-40
2022/05/08 11:46:47;;;;;;;12.48;2.45;;;;;;;20.42;38.19;102857.03;5093040;28;20052;-40
2022/05/08 11:49:18;;;;;;;12.65;2.40;;;;;;;20.20;37.92;102857.25;5093346;28;20103;-40
2022/05/08 11:51:46;;;;;;;12.57;2.53;;;;;;;20.31;36.97;102844.53;5092938;28;20020;-40
2022/05/08 11:54:28;;;;;;;9.60;2.15;;;;;;;21.12;35.58;102850.31;5092843;28;20081;-40